< < Back
Terminal Aerodrome Forecast


Current Version              Previous Versions:   1  2  3  4  5  6  7  8  9  

Terminal Aerodrome Forecast

407
FTUS42 KCAE 301600 AAA
TAFCAE
TAF AMD
KCAE 301642Z 3017/3112 25012G18KT P6SM SCT060 BKN120
     FM302000 29012KT P6SM SCT050
     FM310100 32004KT P6SM SCT250=

Latest METAR

109
SAUS80 KWBC 310100
MTRCAE
METAR KCAE 310056Z 24006KT 10SM SCT060 17/08 A3001 RMK AO2 SLP162
T01720083


USA.gov is the U.S. government's official web portal to all federal, state and local government web resources and services.